Time;durP1;ratioP1;P1;durP2;ratioP2;P2;SDS_P1;SDS_P2;PMS_P1;PMS_P2;Temp;Humidity;BMP_temperature;BMP_pressure;BME280_temperature;BME280_humidity;BME280_pressure;Samples;Min_cycle;Max_cycle;Signal;HPM_P1;HPM_P2
2022/04/23 00:02:06;;;;;;;8.63;6.57;;;6.30;99.90;;;;;;7376136;19;20733;-77
2022/04/23 00:04:31;;;;;;;7.80;6.20;;;6.20;99.90;;;;;;7375251;19;20361;-77
2022/04/23 00:06:58;;;;;;;7.32;6.00;;;6.20;99.90;;;;;;7377755;19;21197;-77
2022/04/23 00:09:23;;;;;;;6.95;5.97;;;6.20;99.90;;;;;;7378270;19;20347;-76
2022/04/23 00:11:49;;;;;;;8.40;6.57;;;6.30;99.90;;;;;;7375571;19;20332;-76
2022/04/23 00:14:14;;;;;;;7.68;6.10;;;6.20;99.90;;;;;;7375386;19;20360;-77
2022/04/23 00:16:40;;;;;;;7.07;5.97;;;6.20;99.90;;;;;;7377264;19;20341;-77
2022/04/23 00:19:05;;;;;;;8.13;6.28;;;6.10;99.90;;;;;;7379513;19;20347;-76
2022/04/23 00:21:31;;;;;;;7.03;5.87;;;6.10;99.90;;;;;;7376435;19;20348;-77
2022/04/23 00:23:57;;;;;;;6.65;5.60;;;6.00;99.90;;;;;;7376714;19;20343;-77
2022/04/23 00:26:22;;;;;;;6.23;5.40;;;6.10;99.90;;;;;;7377794;19;20407;-76
2022/04/23 00:28:48;;;;;;;7.50;6.47;;;6.00;99.90;;;;;;7378247;19;20345;-77
2022/04/23 00:31:16;;;;;;;6.87;6.17;;;6.00;99.90;;;;;;7375874;19;20305;-77
2022/04/23 00:33:42;;;;;;;7.13;6.43;;;5.90;99.90;;;;;;7339054;19;20358;-76
2022/04/23 00:36:10;;;;;;;6.45;5.85;;;5.90;99.90;;;;;;7372042;19;20360;-77
2022/04/23 00:38:40;;;;;;;7.00;6.30;;;5.80;99.90;;;;;;7379766;19;20315;-77
2022/04/23 00:41:43;;;;;;;7.78;6.68;;;5.70;99.90;;;;;;7373616;19;20781;-77
2022/04/23 00:43:54;;;;;;;8.85;6.80;;;5.70;99.90;;;;;;7276254;19;2004534;-77
2022/04/23 00:46:20;;;;;;;8.60;6.35;;;5.60;99.90;;;;;;7374676;19;22317;-77
2022/04/23 00:48:45;;;;;;;8.07;7.10;;;5.60;99.90;;;;;;7378383;19;20357;-78
2022/04/23 00:51:12;;;;;;;7.50;6.70;;;5.50;99.90;;;;;;7375091;19;20301;-77
2022/04/23 00:53:37;;;;;;;6.95;6.25;;;5.50;99.90;;;;;;7378913;19;20340;-77
2022/04/23 00:56:03;;;;;;;7.03;6.18;;;5.40;99.90;;;;;;7376951;19;20335;-76
2022/04/23 00:58:29;;;;;;;5.90;5.30;;;5.40;99.90;;;;;;7379308;19;20372;-76
2022/04/23 01:00:54;;;;;;;8.43;7.00;;;5.40;99.90;;;;;;7375396;19;20353;-77
2022/04/23 01:03:22;;;;;;;7.30;6.50;;;5.30;99.90;;;;;;7373290;19;20351;-76
2022/04/23 01:05:48;;;;;;;7.57;6.27;;;5.30;99.90;;;;;;7374633;19;20351;-76
2022/04/23 01:08:15;;;;;;;6.82;6.05;;;5.30;99.90;;;;;;7378358;19;20685;-76
2022/04/23 01:10:41;;;;;;;6.93;5.97;;;5.30;99.90;;;;;;7377420;19;20400;-77
2022/04/23 01:13:08;;;;;;;7.50;6.40;;;5.30;99.90;;;;;;7378842;19;20372;-76
2022/04/23 01:15:34;;;;;;;7.28;6.10;;;5.20;99.90;;;;;;7378162;19;20403;-76
2022/04/23 01:17:59;;;;;;;6.63;5.90;;;5.20;99.90;;;;;;7375612;19;20347;-78
2022/04/23 01:20:25;;;;;;;8.00;6.40;;;5.20;99.90;;;;;;7373781;19;20333;-76
2022/04/23 01:22:51;;;;;;;7.65;6.85;;;5.30;99.90;;;;;;7369605;19;20336;-76
2022/04/23 01:25:16;;;;;;;8.35;6.38;;;5.20;99.90;;;;;;7372969;19;20323;-76
2022/04/23 01:27:45;;;;;;;8.50;6.83;;;5.10;99.90;;;;;;7380123;19;20349;-77
2022/04/23 01:30:11;;;;;;;7.20;6.50;;;5.10;99.90;;;;;;7371988;19;20343;-77
2022/04/23 01:32:37;;;;;;;7.57;6.78;;;5.10;99.90;;;;;;7374173;19;22598;-77
2022/04/23 01:35:04;;;;;;;8.37;6.40;;;5.00;99.90;;;;;;7371953;19;20699;-76
2022/04/23 01:37:30;;;;;;;7.10;6.40;;;5.00;99.90;;;;;;7375993;19;20839;-77
2022/04/23 01:39:55;;;;;;;6.93;6.20;;;5.00;99.90;;;;;;7373163;19;20353;-76
2022/04/23 01:42:21;;;;;;;7.90;6.47;;;5.00;99.90;;;;;;7373257;19;20368;-77
2022/04/23 01:44:47;;;;;;;8.18;6.93;;;4.90;99.90;;;;;;7375240;19;20961;-76
2022/04/23 01:47:12;;;;;;;7.47;6.72;;;4.90;99.90;;;;;;7379261;19;20349;-76
2022/04/23 01:49:38;;;;;;;8.87;6.40;;;4.90;99.90;;;;;;7384351;19;20317;-76
2022/04/23 01:52:04;;;;;;;7.57;6.72;;;4.80;99.90;;;;;;7378447;19;21065;-77
2022/04/23 01:54:29;;;;;;;8.07;6.60;;;4.80;99.90;;;;;;7381766;19;20336;-77
2022/04/23 01:56:59;;;;;;;9.50;6.97;;;4.80;99.90;;;;;;7380801;19;20314;-76
2022/04/23 01:59:24;;;;;;;7.20;6.13;;;4.70;99.90;;;;;;7384302;19;20333;-76
2022/04/23 02:01:50;;;;;;;8.63;7.28;;;4.70;99.90;;;;;;7380517;19;20363;-77
2022/04/23 02:04:16;;;;;;;8.20;7.40;;;4.70;99.90;;;;;;7381598;19;20324;-76
2022/04/23 02:06:42;;;;;;;9.48;7.75;;;4.60;99.90;;;;;;7381241;19;20928;-76
2022/04/23 02:09:07;;;;;;;10.20;8.00;;;4.50;99.90;;;;;;7383843;19;20332;-77
2022/04/23 02:11:33;;;;;;;7.97;7.17;;;4.50;99.90;;;;;;7381591;19;20688;-76
2022/04/23 02:13:59;;;;;;;8.55;7.65;;;4.40;99.90;;;;;;7379543;19;20344;-77
2022/04/23 02:16:26;;;;;;;9.90;8.30;;;4.40;99.90;;;;;;7381299;19;20332;-75
2022/04/23 02:18:51;;;;;;;9.85;7.95;;;4.40;99.90;;;;;;7383607;19;20317;-77
2022/04/23 02:21:17;;;;;;;8.38;7.47;;;4.30;99.90;;;;;;7383279;19;21464;-77
2022/04/23 02:23:43;;;;;;;9.45;7.40;;;4.30;99.90;;;;;;7381725;19;20344;-76
2022/04/23 02:26:09;;;;;;;8.63;7.47;;;4.30;99.90;;;;;;7379932;19;20340;-76
2022/04/23 02:28:38;;;;;;;8.35;7.28;;;4.30;99.90;;;;;;7384938;19;20332;-76
2022/04/23 02:31:05;;;;;;;9.25;7.55;;;4.30;99.90;;;;;;7377342;19;20312;-77
2022/04/23 02:33:30;;;;;;;10.00;8.10;;;4.20;99.90;;;;;;7382886;19;20347;-77
2022/04/23 02:35:56;;;;;;;8.63;7.40;;;4.20;99.90;;;;;;7382976;19;20340;-77
2022/04/23 02:38:21;;;;;;;8.90;7.97;;;4.20;99.90;;;;;;7382687;19;20329;-76
2022/04/23 02:40:47;;;;;;;10.07;7.73;;;4.30;99.90;;;;;;7378240;19;20352;-76
2022/04/23 02:43:12;;;;;;;8.82;7.28;;;4.10;99.90;;;;;;7377163;19;20340;-76
2022/04/23 02:45:39;;;;;;;9.33;7.90;;;4.10;99.90;;;;;;7379790;19;20340;-75
2022/04/23 02:48:04;;;;;;;10.88;7.85;;;4.10;99.90;;;;;;7371719;19;20349;-76
2022/04/23 02:50:37;;;;;;;9.38;7.72;;;4.10;99.90;;;;;;7371214;19;20830;-76
2022/04/23 02:53:03;;;;;;;10.07;7.57;;;4.00;99.90;;;;;;7383012;19;20320;-76
2022/04/23 02:55:31;;;;;;;8.82;7.97;;;4.00;99.90;;;;;;7377307;19;20412;-76
2022/04/23 02:58:03;;;;;;;8.98;8.05;;;3.90;99.90;;;;;;7379245;19;20388;-77
2022/04/23 03:00:28;;;;;;;10.30;8.40;;;3.90;99.90;;;;;;7379355;19;20320;-76
2022/04/23 03:02:54;;;;;;;8.63;7.73;;;3.90;99.90;;;;;;7381146;19;20353;-76
2022/04/23 03:05:20;;;;;;;10.70;8.27;;;3.90;99.90;;;;;;7382517;19;20588;-77
2022/04/23 03:07:47;;;;;;;9.93;8.43;;;3.90;99.90;;;;;;7383144;19;20332;-78
2022/04/23 03:10:13;;;;;;;11.47;8.17;;;3.80;99.90;;;;;;7381647;19;21112;-77
2022/04/23 03:12:42;;;;;;;10.15;8.07;;;3.70;99.90;;;;;;7382098;19;20547;-79
2022/04/23 03:15:17;;;;;;;10.07;8.30;;;3.70;99.90;;;;;;7379960;19;20358;-77
2022/04/23 03:17:42;;;;;;;8.60;7.37;;;3.80;99.90;;;;;;7277849;19;2019936;-78
2022/04/23 03:20:09;;;;;;;8.25;7.05;;;3.70;99.90;;;;;;7368377;19;20344;-78
2022/04/23 03:22:36;;;;;;;7.13;6.43;;;3.70;99.90;;;;;;7375299;19;21134;-77
2022/04/23 03:25:02;;;;;;;8.65;6.95;;;3.70;99.90;;;;;;7377859;19;20355;-77
2022/04/23 03:27:29;;;;;;;7.97;7.13;;;3.80;99.90;;;;;;7386124;19;20333;-77
2022/04/23 03:29:58;;;;;;;8.53;6.90;;;3.70;99.90;;;;;;7383776;19;20333;-78
2022/04/23 03:32:23;;;;;;;10.18;7.65;;;3.70;99.90;;;;;;7379532;19;20356;-77
2022/04/23 03:34:49;;;;;;;10.65;7.45;;;3.70;99.90;;;;;;7373810;19;20424;-76
2022/04/23 03:37:15;;;;;;;8.50;7.30;;;3.70;99.90;;;;;;7378518;19;20880;-77
2022/04/23 03:39:40;;;;;;;9.43;8.13;;;3.70;99.90;;;;;;7380792;19;20372;-77
2022/04/23 03:42:06;;;;;;;8.33;7.37;;;3.70;99.90;;;;;;7373100;19;21456;-76
2022/04/23 03:44:32;;;;;;;9.18;7.53;;;3.70;99.90;;;;;;7377047;19;20337;-76
2022/04/23 03:46:59;;;;;;;9.13;7.53;;;3.70;99.90;;;;;;7377665;19;20348;-76
2022/04/23 03:49:24;;;;;;;8.47;7.57;;;3.60;99.90;;;;;;7380581;19;20348;-76
2022/04/23 03:51:51;;;;;;;8.40;7.10;;;3.60;99.90;;;;;;7373991;19;21040;-75
2022/04/23 03:54:19;;;;;;;9.43;8.00;;;3.50;99.90;;;;;;7376254;19;20349;-76
2022/04/23 03:56:45;;;;;;;8.85;7.82;;;3.40;99.90;;;;;;7374763;19;22294;-76
2022/04/23 03:59:11;;;;;;;8.82;7.70;;;3.40;99.90;;;;;;7381059;19;20685;-76
2022/04/23 04:01:36;;;;;;;9.17;7.87;;;3.40;99.90;;;;;;7377811;19;20364;-76
2022/04/23 04:04:02;;;;;;;9.05;7.72;;;3.40;99.90;;;;;;7375213;19;20933;-78
2022/04/23 04:06:28;;;;;;;8.27;7.47;;;3.40;99.90;;;;;;7378793;19;20321;-76
2022/04/23 04:08:55;;;;;;;9.05;7.63;;;3.30;99.90;;;;;;7379673;19;20337;-76
2022/04/23 04:11:21;;;;;;;8.10;7.25;;;3.30;99.90;;;;;;7377851;19;20356;-77
2022/04/23 04:13:47;;;;;;;8.55;7.68;;;3.30;99.90;;;;;;7376311;19;20324;-76
2022/04/23 04:16:13;;;;;;;9.93;7.97;;;3.20;99.90;;;;;;7374110;19;21038;-77
2022/04/23 04:18:39;;;;;;;9.05;7.97;;;3.20;99.90;;;;;;7380821;19;20328;-76
2022/04/23 04:21:05;;;;;;;9.63;7.57;;;3.20;99.90;;;;;;7378207;19;20344;-76
2022/04/23 04:23:30;;;;;;;8.52;7.38;;;3.10;99.90;;;;;;7375234;19;21066;-77
2022/04/23 04:25:56;;;;;;;8.90;8.00;;;3.10;99.90;;;;;;7377898;19;20405;-76
2022/04/23 04:28:21;;;;;;;9.43;8.40;;;3.10;99.90;;;;;;7377005;19;20337;-76
2022/04/23 04:33:32;;;;;;;10.43;8.75;;;3.00;99.90;;;;;;7376264;19;21592;-76
2022/04/23 04:35:57;;;;;;;9.93;8.37;;;3.00;99.90;;;;;;7380173;19;21214;-76
2022/04/23 04:38:23;;;;;;;10.65;8.80;;;3.00;99.90;;;;;;7376894;19;20351;-76
2022/04/23 04:40:49;;;;;;;9.37;8.37;;;3.00;99.90;;;;;;7374347;19;20676;-76
2022/04/23 04:43:14;;;;;;;10.73;9.63;;;3.10;99.90;;;;;;7376609;19;20346;-77
2022/04/23 04:45:40;;;;;;;11.77;8.93;;;3.10;99.90;;;;;;7375893;19;20701;-75
2022/04/23 04:48:06;;;;;;;10.13;8.82;;;3.10;99.90;;;;;;7375289;19;20432;-77
2022/04/23 04:50:31;;;;;;;10.35;9.13;;;3.20;99.90;;;;;;7375882;19;20677;-76
2022/04/23 04:52:58;;;;;;;9.57;8.50;;;3.10;99.90;;;;;;7376707;19;20332;-76
2022/04/23 04:55:23;;;;;;;10.95;9.10;;;3.30;99.90;;;;;;7377782;19;20347;-75
2022/04/23 04:57:49;;;;;;;12.20;10.07;;;3.40;99.90;;;;;;7376391;19;20340;-76
2022/04/23 05:00:16;;;;;;;10.73;9.30;;;3.40;99.90;;;;;;7375316;19;20411;-76
2022/04/23 05:02:41;;;;;;;12.20;9.52;;;3.50;99.90;;;;;;7374637;19;20344;-76
2022/04/23 05:05:07;;;;;;;9.97;8.93;;;3.50;99.90;;;;;;7375134;19;20353;-77
2022/04/23 05:07:33;;;;;;;11.18;9.98;;;3.60;99.90;;;;;;7375205;19;20354;-76
2022/04/23 05:10:00;;;;;;;11.95;10.70;;;3.70;99.90;;;;;;7375668;19;20321;-76
2022/04/23 05:12:26;;;;;;;12.60;9.83;;;3.70;99.90;;;;;;7375746;19;20440;-76
2022/04/23 05:14:51;;;;;;;11.93;9.77;;;3.80;99.90;;;;;;7373233;19;20400;-76
2022/04/23 05:17:17;;;;;;;11.33;10.07;;;3.90;99.90;;;;;;7373612;19;20333;-76
2022/04/23 05:19:42;;;;;;;12.40;9.90;;;4.00;99.90;;;;;;7375841;19;20912;-76
2022/04/23 05:22:08;;;;;;;12.27;10.57;;;4.10;99.90;;;;;;7381106;19;20328;-76
2022/04/23 05:24:34;;;;;;;13.43;11.23;;;4.10;99.90;;;;;;7381560;19;20361;-76
2022/04/23 05:26:59;;;;;;;13.25;10.95;;;4.20;99.90;;;;;;7384116;19;20348;-77
2022/04/23 05:29:25;;;;;;;14.13;11.00;;;4.30;99.90;;;;;;7382590;19;20344;-76
2022/04/23 05:31:50;;;;;;;12.05;10.80;;;4.40;99.90;;;;;;7377840;19;20347;-76
2022/04/23 05:34:16;;;;;;;11.53;10.33;;;4.50;99.90;;;;;;7379604;19;20319;-76
2022/04/23 05:36:42;;;;;;;15.10;11.27;;;4.60;99.90;;;;;;7380879;19;20458;-77
2022/04/23 05:39:07;;;;;;;12.60;11.27;;;4.70;99.90;;;;;;7381927;19;20366;-76
2022/04/23 05:41:33;;;;;;;12.20;10.68;;;4.80;99.90;;;;;;7381510;19;20371;-76
2022/04/23 05:43:59;;;;;;;12.73;10.77;;;4.90;99.90;;;;;;7377782;19;20328;-77
2022/04/23 05:46:24;;;;;;;13.88;11.23;;;5.10;99.90;;;;;;7376096;19;20344;-77
2022/04/23 05:48:50;;;;;;;12.33;11.00;;;5.10;99.90;;;;;;7376734;19;20340;-76
2022/04/23 05:51:15;;;;;;;13.95;11.52;;;5.20;99.90;;;;;;7376680;19;20388;-76
2022/04/23 05:53:41;;;;;;;12.73;10.80;;;5.30;99.90;;;;;;7374805;19;20384;-76
2022/04/23 05:56:07;;;;;;;12.23;10.82;;;5.40;99.90;;;;;;7374154;19;20336;-76
2022/04/23 05:58:36;;;;;;;13.10;10.73;;;5.50;99.90;;;;;;7375890;19;20462;-77
2022/04/23 06:01:01;;;;;;;13.10;10.30;;;5.70;99.90;;;;;;7379807;19;20321;-77
2022/04/23 06:03:27;;;;;;;12.35;10.57;;;5.80;99.90;;;;;;7377079;19;20372;-77
2022/04/23 06:05:53;;;;;;;11.53;10.27;;;5.90;99.90;;;;;;7378612;19;20336;-77
2022/04/23 06:08:18;;;;;;;11.20;9.93;;;6.00;99.90;;;;;;7380154;19;20438;-77
2022/04/23 06:10:44;;;;;;;12.30;10.60;;;6.20;99.90;;;;;;7380720;19;20341;-77
2022/04/23 06:13:10;;;;;;;10.87;9.43;;;6.40;99.90;;;;;;7375073;19;20345;-77
2022/04/23 06:15:36;;;;;;;12.82;11.20;;;6.50;99.90;;;;;;7381032;19;20293;-77
2022/04/23 06:18:01;;;;;;;10.52;9.38;;;6.70;99.90;;;;;;7379435;19;20373;-78
2022/04/23 06:20:27;;;;;;;11.77;10.10;;;6.70;99.90;;;;;;7381226;19;20366;-78
2022/04/23 06:22:53;;;;;;;11.60;10.02;;;6.90;99.90;;;;;;7376375;19;20365;-76
2022/04/23 06:25:18;;;;;;;12.17;10.67;;;7.00;99.90;;;;;;7376743;19;20423;-76
2022/04/23 06:27:44;;;;;;;11.32;9.57;;;7.10;99.90;;;;;;7381679;19;20316;-77
2022/04/23 06:30:10;;;;;;;11.43;9.50;;;7.30;99.90;;;;;;7381023;19;20340;-77
2022/04/23 06:32:38;;;;;;;12.40;9.40;;;7.50;99.90;;;;;;7379922;19;20463;-79
2022/04/23 06:35:05;;;;;;;11.00;8.98;;;7.70;99.90;;;;;;7378771;19;20303;-77
2022/04/23 06:37:36;;;;;;;10.30;9.15;;;7.90;99.90;;;;;;7379660;19;20341;-77
2022/04/23 06:40:01;;;;;;;9.93;8.30;;;8.00;99.90;;;;;;7376668;19;20369;-77
2022/04/23 06:42:27;;;;;;;11.20;9.57;;;8.20;99.90;;;;;;7377664;19;20716;-78
2022/04/23 06:44:53;;;;;;;10.63;8.32;;;8.40;99.90;;;;;;7378938;19;20336;-77
2022/04/23 06:47:19;;;;;;;10.93;9.10;;;8.50;99.90;;;;;;7380849;19;20366;-77
2022/04/23 06:49:44;;;;;;;10.37;8.63;;;8.70;99.90;;;;;;7384640;19;20301;-77
2022/04/23 06:52:10;;;;;;;9.77;8.77;;;8.70;99.90;;;;;;7377740;19;20356;-77
2022/04/23 06:54:35;;;;;;;11.55;7.80;;;8.90;99.90;;;;;;7379737;19;21047;-78
2022/04/23 06:57:01;;;;;;;10.00;8.30;;;9.00;99.90;;;;;;7381416;19;20879;-77
2022/04/23 06:59:26;;;;;;;9.50;8.25;;;9.20;99.90;;;;;;7383964;19;20331;-75
2022/04/23 07:01:52;;;;;;;8.43;7.53;;;9.30;99.90;;;;;;7382059;19;20325;-77
2022/04/23 07:04:18;;;;;;;9.50;8.35;;;9.50;99.90;;;;;;7377065;19;20357;-78
2022/04/23 07:06:43;;;;;;;9.47;7.87;;;9.60;99.90;;;;;;7378944;19;20938;-77
2022/04/23 07:09:09;;;;;;;9.35;7.93;;;9.70;99.90;;;;;;7383109;19;20931;-76
2022/04/23 07:11:35;;;;;;;9.67;8.30;;;9.90;99.90;;;;;;7381453;19;20327;-76
2022/04/23 07:14:00;;;;;;;10.55;7.68;;;10.00;99.90;;;;;;7374848;19;20312;-79
2022/04/23 07:16:26;;;;;;;7.93;6.90;;;10.10;99.90;;;;;;7378388;19;20353;-80
2022/04/23 07:18:54;;;;;;;9.80;8.80;;;10.20;99.90;;;;;;7377870;19;21281;-78
2022/04/23 07:21:21;;;;;;;9.48;6.80;;;10.40;99.90;;;;;;7378004;19;20919;-77
2022/04/23 07:26:32;;;;;;;8.63;7.17;;;10.60;99.90;;;;;;7376501;19;20309;-77
2022/04/23 07:28:58;;;;;;;9.02;7.40;;;10.70;99.90;;;;;;7379831;19;20367;-78
2022/04/23 07:31:24;;;;;;;7.43;6.73;;;10.70;99.90;;;;;;7378789;19;20373;-76
2022/04/23 07:39:18;;;;;;;7.38;6.60;;;11.20;99.90;;;;;;7278276;19;2004397;-76
2022/04/23 07:41:43;;;;;;;7.67;6.83;;;11.50;99.90;;;;;;7380364;19;20309;-78
2022/04/23 07:44:09;;;;;;;8.52;7.20;;;11.60;99.90;;;;;;7378209;19;20400;-78
2022/04/23 07:46:35;;;;;;;7.07;6.37;;;11.60;99.90;;;;;;7378377;19;20431;-77
2022/04/23 07:49:01;;;;;;;6.57;5.88;;;11.70;99.90;;;;;;7378886;19;20355;-78
2022/04/23 07:51:27;;;;;;;6.57;5.95;;;11.90;99.90;;;;;;7374996;19;20432;-78
2022/04/23 07:53:55;;;;;;;7.03;6.33;;;12.10;99.90;;;;;;7375649;19;20336;-78
2022/04/23 07:56:21;;;;;;;5.40;4.90;;;12.40;99.90;;;;;;7375280;19;20327;-77
2022/04/23 07:58:47;;;;;;;5.63;5.03;;;12.60;99.90;;;;;;7375758;19;20384;-78
2022/04/23 08:01:12;;;;;;;5.40;4.85;;;12.90;99.90;;;;;;7378454;19;20312;-79
2022/04/23 08:03:38;;;;;;;5.87;5.17;;;13.00;99.90;;;;;;7380271;19;20336;-81
2022/04/23 08:06:04;;;;;;;5.10;4.55;;;13.00;99.90;;;;;;7378789;19;20345;-79
2022/04/23 08:08:30;;;;;;;5.07;4.57;;;13.10;99.90;;;;;;7372648;19;20333;-78
2022/04/23 08:10:55;;;;;;;5.47;4.32;;;13.20;99.90;;;;;;7372667;19;20805;-79
2022/04/23 08:13:21;;;;;;;4.55;4.15;;;13.40;99.90;;;;;;7366374;19;20420;-79
2022/04/23 08:15:46;;;;;;;5.20;4.70;;;13.60;99.90;;;;;;7370948;19;20348;-78
2022/04/23 08:18:12;;;;;;;5.05;4.20;;;13.70;99.90;;;;;;7372084;19;20904;-81
2022/04/23 08:20:41;;;;;;;4.10;3.70;;;13.80;99.90;;;;;;7371586;19;20421;-82
2022/04/23 08:23:07;;;;;;;4.28;3.88;;;13.70;99.90;;;;;;7368877;19;20341;-80
2022/04/23 08:25:32;;;;;;;4.53;3.80;;;13.60;99.90;;;;;;7367571;19;20344;-79
2022/04/23 08:30:42;;;;;;;4.15;3.75;;;14.00;99.90;;;;;;7270954;19;2004412;-76
2022/04/23 08:33:08;;;;;;;4.33;3.90;;;14.10;99.90;;;;;;7371930;19;20376;-82
2022/04/23 08:35:35;;;;;;;5.20;4.22;;;14.30;99.90;;;;;;7373641;19;20349;-76
2022/04/23 08:38:01;;;;;;;4.40;4.00;;;14.10;99.90;;;;;;7379964;19;20379;-88
2022/04/23 08:40:29;;;;;;;4.18;3.85;;;14.00;99.90;;;;;;7397244;19;20365;-81
2022/04/23 08:43:01;;;;;;;4.80;4.15;;;13.90;99.90;;;;;;7398029;19;20416;-86
2022/04/23 08:45:27;;;;;;;5.65;4.10;;;14.10;99.90;;;;;;7382366;19;20374;-81
2022/04/23 08:47:52;;;;;;;4.43;4.03;;;14.20;99.90;;;;;;7398152;19;20308;-80
2022/04/23 08:50:21;;;;;;;5.30;4.00;;;14.20;99.90;;;;;;7406942;19;20371;-80
2022/04/23 08:52:55;;;;;;;4.68;4.28;;;14.40;99.90;;;;;;7414529;19;20333;-85
2022/04/23 09:00:49;;;;;;;4.30;3.90;;;14.60;99.90;;;;;;7398424;19;20358;-78
2022/04/23 09:05:43;;;;;;;4.50;4.10;;;14.70;99.90;;;;;;7387278;19;20682;-80
2022/04/23 09:08:09;;;;;;;4.75;3.78;;;14.60;99.90;;;;;;7385821;19;20995;-80
2022/04/23 09:10:47;;;;;;;3.88;3.50;;;14.60;99.90;;;;;;7387857;19;20312;-80
2022/04/23 09:13:25;;;;;;;4.40;4.00;;;14.70;99.90;;;;;;7281176;19;2004449;-86
2022/04/23 09:24:47;;;;;;;3.47;3.17;;;15.20;99.90;;;;;;7174546;19;2004360;-82
2022/04/23 09:27:12;;;;;;;3.72;3.42;;;15.40;99.90;;;;;;7384937;19;20349;-81
2022/04/23 09:29:38;;;;;;;3.85;3.40;;;15.40;99.90;;;;;;7397657;19;20325;-81
2022/04/23 09:32:12;;;;;;;4.70;3.70;;;15.80;99.90;;;;;;7381032;19;20324;-79
2022/04/23 09:34:38;;;;;;;3.88;3.35;;;15.70;99.90;;;;;;7380037;19;20312;-80
2022/04/23 09:37:05;;;;;;;3.47;3.17;;;15.90;99.90;;;;;;7383842;19;20383;-84
2022/04/23 09:39:34;;;;;;;4.10;3.70;;;16.00;99.90;;;;;;7392409;19;20317;-82
2022/04/23 09:42:16;;;;;;;3.85;3.05;;;16.20;99.90;;;;;;7388441;19;20312;-81
2022/04/23 09:44:42;;;;;;;3.47;3.20;;;16.40;99.90;;;;;;7281427;19;2004144;-79
2022/04/23 09:47:08;;;;;;;3.83;3.53;;;16.70;99.90;;;;;;7382027;19;20356;-81
2022/04/23 09:49:34;;;;;;;3.67;3.33;;;16.80;99.90;;;;;;7381303;19;20325;-80
2022/04/23 09:52:06;;;;;;;4.10;3.63;;;17.00;99.90;;;;;;7381539;19;20863;-80
2022/04/23 09:54:36;;;;;;;3.40;3.10;;;16.90;99.90;;;;;;7377223;19;20312;-83
2022/04/23 09:57:01;;;;;;;3.40;3.10;;;16.90;99.90;;;;;;7380876;19;20340;-83
2022/04/23 09:59:27;;;;;;;3.38;3.08;;;17.00;99.90;;;;;;7386630;19;20341;-84
2022/04/23 10:01:54;;;;;;;3.33;3.03;;;17.50;99.90;;;;;;7393016;19;20316;-79
2022/04/23 10:04:27;;;;;;;3.90;3.28;;;17.70;98.30;;;;;;7365057;19;20348;-83
2022/04/23 10:06:54;;;;;;;3.10;2.90;;;17.90;98.40;;;;;;7411450;19;20408;-87
2022/04/23 10:09:26;;;;;;;3.30;3.00;;;18.20;98.50;;;;;;7392697;19;20352;-81
2022/04/23 10:12:07;;;;;;;3.13;2.80;;;18.30;96.40;;;;;;7392046;19;20313;-81
2022/04/23 10:14:36;;;;;;;4.05;3.03;;;18.70;96.60;;;;;;7303235;19;2004597;-91
2022/04/23 10:17:04;;;;;;;3.55;2.97;;;18.60;92.90;;;;;;7398094;19;20340;-83
2022/04/23 10:19:30;;;;;;;3.50;3.20;;;18.20;93.10;;;;;;7397134;19;20747;-83
2022/04/23 10:22:11;;;;;;;3.22;2.92;;;18.50;93.80;;;;;;7383651;19;20405;-86
2022/04/23 10:24:43;;;;;;;3.55;3.22;;;18.60;92.70;;;;;;7286442;19;2004486;-86
2022/04/23 10:27:14;;;;;;;3.50;3.20;;;18.50;91.50;;;;;;7391213;19;20343;-84
2022/04/23 10:29:39;;;;;;;3.15;2.92;;;18.60;92.90;;;;;;7389776;19;20329;-87
2022/04/23 10:32:11;;;;;;;3.40;3.10;;;18.50;92.10;;;;;;7389957;19;20348;-80
2022/04/23 10:34:38;;;;;;;3.42;3.13;;;18.60;92.80;;;;;;7386537;19;20328;-83
2022/04/23 10:37:27;;;;;;;3.13;2.83;;;18.60;91.50;;;;;;7389246;19;20328;-85
2022/04/23 10:39:52;;;;;;;3.30;3.00;;;18.70;92.30;;;;;;7290539;19;2004428;-85
2022/04/23 10:42:18;;;;;;;3.67;3.30;;;18.90;92.30;;;;;;7391744;19;20313;-82
2022/04/23 10:44:45;;;;;;;3.40;3.10;;;19.30;90.70;;;;;;7390600;19;20345;-87
2022/04/23 10:47:16;;;;;;;3.30;3.00;;;19.50;90.30;;;;;;7391940;19;20341;-86
2022/04/23 10:49:41;;;;;;;3.45;3.15;;;19.70;89.30;;;;;;7385300;19;20316;-84
2022/04/23 10:52:07;;;;;;;4.38;3.20;;;19.80;87.70;;;;;;7387783;19;20352;-82
2022/04/23 10:54:47;;;;;;;3.05;2.75;;;19.80;86.70;;;;;;7388929;19;20320;-83
2022/04/23 10:57:13;;;;;;;3.23;2.93;;;20.10;82.80;;;;;;7390694;19;20393;-85
2022/04/23 11:12:28;;;;;;;2.97;2.78;;;20.30;75.80;;;;;;7305531;19;2004362;-90
2022/04/23 11:14:55;;;;;;;3.20;2.90;;;19.60;76.90;;;;;;7412271;19;20296;-90
2022/04/23 11:17:30;;;;;;;3.47;3.17;;;19.40;79.00;;;;;;7402008;19;20407;-90
2022/04/23 11:19:55;;;;;;;3.23;2.73;;;19.50;79.30;;;;;;7409612;19;20336;-90
2022/04/23 11:22:21;;;;;;;2.92;2.72;;;19.50;79.30;;;;;;7410134;19;20313;-89
2022/04/23 11:24:48;;;;;;;3.13;2.80;;;19.50;79.60;;;;;;7410495;19;20333;-89
2022/04/23 11:27:24;;;;;;;2.80;2.60;;;19.90;78.80;;;;;;7410330;19;20330;-88
2022/04/23 11:29:56;;;;;;;3.00;2.80;;;20.70;76.70;;;;;;7407961;19;20388;-90
2022/04/23 11:32:28;;;;;;;2.97;2.70;;;20.90;77.80;;;;;;7409595;19;20355;-88
2022/04/23 11:34:58;;;;;;;3.00;2.70;;;21.20;73.40;;;;;;7398729;19;20336;-84
2022/04/23 11:37:34;;;;;;;3.03;2.72;;;20.80;72.60;;;;;;7396352;19;20365;-77
2022/04/23 11:40:12;;;;;;;2.63;2.42;;;20.40;72.40;;;;;;7398018;19;20341;-84
2022/04/23 11:42:42;;;;;;;2.85;2.65;;;20.00;72.60;;;;;;7391465;19;20436;-82
2022/04/23 11:45:09;;;;;;;2.65;2.45;;;20.00;75.10;;;;;;7381617;19;20320;-76
2022/04/23 11:48:13;;;;;;;4.05;3.03;;;20.30;74.60;;;;;;7387913;19;20346;-89
2022/04/23 11:50:43;;;;;;;2.90;2.70;;;20.90;74.40;;;;;;7301017;19;2004243;-84
2022/04/23 11:53:49;;;;;;;2.65;2.45;;;21.00;73.20;;;;;;7418453;19;20352;-90
2022/04/23 12:04:29;;;;;;;2.85;2.47;;;22.20;67.10;;;;;;7367249;19;20375;-90
2022/04/23 12:21:05;;;;;;;2.67;2.47;;;23.50;62.30;;;;;;7405147;19;21730;-88
2022/04/23 12:23:41;;;;;;;2.97;2.58;;;23.20;59.90;;;;;;7406363;19;20361;-86
2022/04/23 12:26:11;;;;;;;2.85;2.65;;;23.10;59.10;;;;;;7407542;19;20355;-91
2022/04/23 12:42:23;;;;;;;2.50;2.30;;;22.20;63.00;;;;;;7392997;19;20388;-89
2022/04/23 12:44:51;;;;;;;3.33;2.87;;;23.10;61.40;;;;;;7410373;19;20347;-84
2022/04/23 12:47:30;;;;;;;2.42;2.22;;;22.80;59.80;;;;;;7411157;19;20304;-92
2022/04/23 12:49:58;;;;;;;2.67;2.47;;;22.00;58.80;;;;;;7413550;19;20319;-91
2022/04/23 12:52:33;;;;;;;2.63;2.42;;;21.90;58.60;;;;;;7411620;19;20384;-91
2022/04/23 12:55:18;;;;;;;2.80;2.60;;;22.00;59.60;;;;;;7409051;19;20336;-91
2022/04/23 12:57:50;;;;;;;2.50;2.30;;;22.90;61.00;;;;;;7414205;19;20387;-87
2022/04/23 13:00:16;;;;;;;2.47;2.30;;;23.20;60.20;;;;;;7408604;19;20363;-89
2022/04/23 13:02:43;;;;;;;2.97;2.67;;;23.10;57.20;;;;;;7411880;19;20328;-91
2022/04/23 13:05:10;;;;;;;2.70;2.50;;;22.90;57.40;;;;;;7411752;19;20336;-91
2022/04/23 13:10:20;;;;;;;3.13;2.75;;;21.90;56.40;;;;;;7410741;19;20308;-91
2022/04/23 13:12:45;;;;;;;2.73;2.50;;;21.80;58.00;;;;;;7411209;19;20359;-91
2022/04/23 13:15:11;;;;;;;2.63;2.40;;;22.60;62.50;;;;;;7409861;19;20317;-91
2022/04/23 13:17:41;;;;;;;2.70;2.50;;;23.60;60.10;;;;;;7410383;19;20337;-88
2022/04/23 13:20:09;;;;;;;2.72;2.53;;;24.00;56.70;;;;;;7409288;19;20316;-89
2022/04/23 13:22:35;;;;;;;4.40;2.20;;;24.80;57.80;;;;;;7409983;19;20325;-88
2022/04/23 13:25:05;;;;;;;5.82;2.38;;;24.90;55.60;;;;;;7409074;19;20352;-89
2022/04/23 13:27:31;;;;;;;2.63;2.42;;;24.30;56.60;;;;;;7410508;19;20378;-83
2022/04/23 13:29:58;;;;;;;3.85;2.53;;;24.50;53.60;;;;;;7408181;19;20312;-87
2022/04/23 13:32:24;;;;;;;2.63;2.43;;;24.30;55.30;;;;;;7408325;19;21809;-87
2022/04/23 13:34:49;;;;;;;2.63;2.42;;;25.10;56.60;;;;;;7405090;19;20432;-88
2022/04/23 13:37:16;;;;;;;2.93;2.67;;;25.30;55.10;;;;;;7401278;19;20312;-89
2022/04/23 13:39:42;;;;;;;2.60;2.40;;;24.00;54.90;;;;;;7408330;19;20332;-89
2022/04/23 13:42:07;;;;;;;2.75;2.55;;;22.90;54.10;;;;;;7415867;19;20340;-92
2022/04/23 13:44:36;;;;;;;2.50;2.30;;;22.50;55.20;;;;;;7415396;19;20309;-89
2022/04/23 13:47:02;;;;;;;2.40;2.20;;;21.70;53.70;;;;;;7417348;19;20388;-90
2022/04/23 13:49:28;;;;;;;2.75;2.55;;;22.30;57.30;;;;;;7418284;19;20321;-87
2022/04/23 13:51:53;;;;;;;2.80;2.50;;;22.80;55.00;;;;;;7415495;19;20295;-88
2022/04/23 13:54:19;;;;;;;2.47;2.28;;;23.40;54.10;;;;;;7412069;19;20325;-88
2022/04/23 13:56:49;;;;;;;2.70;2.50;;;24.50;56.80;;;;;;7410764;19;20385;-87
2022/04/23 13:59:15;;;;;;;2.60;2.40;;;24.70;52.80;;;;;;7418313;19;20297;-89
2022/04/23 14:01:41;;;;;;;3.30;2.60;;;25.00;55.40;;;;;;7415618;19;20329;-88
2022/04/23 14:12:23;;;;;;;2.72;2.53;;;25.50;50.80;;;;;;7283112;19;2006106;-81
2022/04/23 14:14:49;;;;;;;2.30;2.10;;;25.90;49.80;;;;;;7388913;19;20344;-81
2022/04/23 14:17:14;;;;;;;2.63;2.43;;;25.40;49.70;;;;;;7403156;19;20333;-83
2022/04/23 14:19:40;;;;;;;3.00;2.80;;;25.70;50.90;;;;;;7408792;19;20309;-84